sensor_id;sensor_type;location;lat;lon;timestamp;P1;durP1;ratioP1;P2;durP2;ratioP2
37239;SDS011;23130;48.760;9.178;2023-02-15T00:01:25;47.30;;;22.55;;
37239;SDS011;23130;48.760;9.178;2023-02-15T00:03:51;42.65;;;23.10;;
37239;SDS011;23130;48.760;9.178;2023-02-15T00:06:17;50.40;;;23.67;;
37239;SDS011;23130;48.760;9.178;2023-02-15T00:08:43;49.92;;;24.50;;
37239;SDS011;23130;48.760;9.178;2023-02-15T00:11:12;51.97;;;25.15;;
37239;SDS011;23130;48.760;9.178;2023-02-15T00:13:39;50.20;;;24.67;;
37239;SDS011;23130;48.760;9.178;2023-02-15T00:16:11;47.55;;;23.63;;
37239;SDS011;23130;48.760;9.178;2023-02-15T00:18:40;45.63;;;23.35;;
37239;SDS011;23130;48.760;9.178;2023-02-15T00:21:07;46.58;;;24.20;;
37239;SDS011;23130;48.760;9.178;2023-02-15T00:23:34;45.55;;;22.17;;
37239;SDS011;23130;48.760;9.178;2023-02-15T00:28:30;44.95;;;23.45;;
37239;SDS011;23130;48.760;9.178;2023-02-15T00:31:06;43.60;;;21.80;;
37239;SDS011;23130;48.760;9.178;2023-02-15T00:33:32;55.10;;;23.80;;
37239;SDS011;23130;48.760;9.178;2023-02-15T00:35:59;46.70;;;24.10;;
37239;SDS011;23130;48.760;9.178;2023-02-15T00:38:28;43.65;;;23.48;;
37239;SDS011;23130;48.760;9.178;2023-02-15T00:40:55;45.90;;;23.77;;
37239;SDS011;23130;48.760;9.178;2023-02-15T00:43:25;44.72;;;23.15;;
37239;SDS011;23130;48.760;9.178;2023-02-15T00:45:52;46.42;;;25.08;;
37239;SDS011;23130;48.760;9.178;2023-02-15T00:48:17;49.85;;;23.33;;
37239;SDS011;23130;48.760;9.178;2023-02-15T00:50:45;45.70;;;23.17;;
37239;SDS011;23130;48.760;9.178;2023-02-15T00:53:11;57.60;;;24.88;;
37239;SDS011;23130;48.760;9.178;2023-02-15T00:55:37;48.53;;;23.83;;
37239;SDS011;23130;48.760;9.178;2023-02-15T00:58:04;53.20;;;26.25;;
37239;SDS011;23130;48.760;9.178;2023-02-15T01:00:30;54.28;;;26.13;;
37239;SDS011;23130;48.760;9.178;2023-02-15T01:02:56;58.65;;;25.23;;
37239;SDS011;23130;48.760;9.178;2023-02-15T01:05:21;48.88;;;24.23;;
37239;SDS011;23130;48.760;9.178;2023-02-15T01:07:47;55.67;;;28.40;;
37239;SDS011;23130;48.760;9.178;2023-02-15T01:10:12;56.47;;;25.27;;
37239;SDS011;23130;48.760;9.178;2023-02-15T01:12:38;50.60;;;23.75;;
37239;SDS011;23130;48.760;9.178;2023-02-15T01:15:03;51.08;;;24.05;;
37239;SDS011;23130;48.760;9.178;2023-02-15T01:17:30;50.22;;;25.88;;
37239;SDS011;23130;48.760;9.178;2023-02-15T01:19:56;51.40;;;23.95;;
37239;SDS011;23130;48.760;9.178;2023-02-15T01:22:21;47.58;;;23.50;;
37239;SDS011;23130;48.760;9.178;2023-02-15T01:24:48;50.50;;;25.40;;
37239;SDS011;23130;48.760;9.178;2023-02-15T01:27:15;49.03;;;24.33;;
37239;SDS011;23130;48.760;9.178;2023-02-15T01:29:40;50.97;;;23.77;;
37239;SDS011;23130;48.760;9.178;2023-02-15T01:32:06;55.72;;;25.63;;
37239;SDS011;23130;48.760;9.178;2023-02-15T01:34:31;49.78;;;24.73;;
37239;SDS011;23130;48.760;9.178;2023-02-15T01:36:57;44.47;;;23.27;;
37239;SDS011;23130;48.760;9.178;2023-02-15T01:39:22;50.72;;;24.10;;
37239;SDS011;23130;48.760;9.178;2023-02-15T01:41:48;45.15;;;22.13;;
37239;SDS011;23130;48.760;9.178;2023-02-15T01:47:13;42.85;;;22.33;;
37239;SDS011;23130;48.760;9.178;2023-02-15T01:49:46;52.28;;;23.23;;
37239;SDS011;23130;48.760;9.178;2023-02-15T01:52:13;50.78;;;24.40;;
37239;SDS011;23130;48.760;9.178;2023-02-15T01:54:40;50.60;;;24.35;;
37239;SDS011;23130;48.760;9.178;2023-02-15T01:57:09;52.67;;;24.10;;
37239;SDS011;23130;48.760;9.178;2023-02-15T01:59:37;47.65;;;23.17;;
37239;SDS011;23130;48.760;9.178;2023-02-15T02:02:05;51.78;;;25.55;;
37239;SDS011;23130;48.760;9.178;2023-02-15T02:07:06;53.38;;;24.30;;
37239;SDS011;23130;48.760;9.178;2023-02-15T02:09:35;52.15;;;25.23;;
37239;SDS011;23130;48.760;9.178;2023-02-15T02:12:01;46.15;;;23.60;;
37239;SDS011;23130;48.760;9.178;2023-02-15T02:14:27;49.17;;;23.00;;
37239;SDS011;23130;48.760;9.178;2023-02-15T02:36:56;55.15;;;23.95;;
37239;SDS011;23130;48.760;9.178;2023-02-15T02:39:49;46.83;;;22.15;;
37239;SDS011;23130;48.760;9.178;2023-02-15T02:44:54;45.10;;;22.33;;
37239;SDS011;23130;48.760;9.178;2023-02-15T02:47:47;45.92;;;21.35;;
37239;SDS011;23130;48.760;9.178;2023-02-15T02:52:47;41.13;;;21.27;;
37239;SDS011;23130;48.760;9.178;2023-02-15T03:01:17;43.40;;;21.00;;
37239;SDS011;23130;48.760;9.178;2023-02-15T03:03:40;49.00;;;24.13;;
37239;SDS011;23130;48.760;9.178;2023-02-15T03:06:17;48.50;;;22.13;;
37239;SDS011;23130;48.760;9.178;2023-02-15T03:08:46;54.90;;;24.50;;
37239;SDS011;23130;48.760;9.178;2023-02-15T03:11:15;50.92;;;23.80;;
37239;SDS011;23130;48.760;9.178;2023-02-15T03:13:41;54.10;;;23.38;;
37239;SDS011;23130;48.760;9.178;2023-02-15T03:16:09;49.05;;;23.90;;
37239;SDS011;23130;48.760;9.178;2023-02-15T03:18:54;46.87;;;22.87;;
37239;SDS011;23130;48.760;9.178;2023-02-15T03:24:15;49.25;;;24.95;;
37239;SDS011;23130;48.760;9.178;2023-02-15T03:26:45;44.67;;;22.58;;
37239;SDS011;23130;48.760;9.178;2023-02-15T03:29:12;54.67;;;23.65;;
37239;SDS011;23130;48.760;9.178;2023-02-15T03:31:41;45.28;;;23.92;;
37239;SDS011;23130;48.760;9.178;2023-02-15T03:34:11;48.60;;;21.77;;
37239;SDS011;23130;48.760;9.178;2023-02-15T03:39:38;47.17;;;22.00;;
37239;SDS011;23130;48.760;9.178;2023-02-15T03:42:25;45.15;;;22.38;;
37239;SDS011;23130;48.760;9.178;2023-02-15T03:45:05;51.15;;;24.80;;
37239;SDS011;23130;48.760;9.178;2023-02-15T03:47:39;46.55;;;23.05;;
37239;SDS011;23130;48.760;9.178;2023-02-15T03:50:18;49.40;;;21.95;;
37239;SDS011;23130;48.760;9.178;2023-02-15T03:53:06;51.22;;;22.85;;
37239;SDS011;23130;48.760;9.178;2023-02-15T03:55:34;44.30;;;22.55;;
37239;SDS011;23130;48.760;9.178;2023-02-15T03:58:01;46.80;;;23.15;;
37239;SDS011;23130;48.760;9.178;2023-02-15T04:00:54;42.90;;;21.48;;
37239;SDS011;23130;48.760;9.178;2023-02-15T04:03:46;59.88;;;24.58;;
37239;SDS011;23130;48.760;9.178;2023-02-15T04:06:19;48.88;;;22.30;;
37239;SDS011;23130;48.760;9.178;2023-02-15T04:08:44;49.33;;;22.90;;
37239;SDS011;23130;48.760;9.178;2023-02-15T04:11:29;52.85;;;21.77;;
37239;SDS011;23130;48.760;9.178;2023-02-15T04:13:55;48.38;;;24.67;;
37239;SDS011;23130;48.760;9.178;2023-02-15T04:16:22;47.72;;;23.85;;
37239;SDS011;23130;48.760;9.178;2023-02-15T04:18:48;51.15;;;23.25;;
37239;SDS011;23130;48.760;9.178;2023-02-15T04:21:33;49.85;;;23.00;;
37239;SDS011;23130;48.760;9.178;2023-02-15T04:24:17;54.30;;;23.75;;
37239;SDS011;23130;48.760;9.178;2023-02-15T04:27:02;53.72;;;22.83;;
37239;SDS011;23130;48.760;9.178;2023-02-15T04:29:28;53.25;;;24.52;;
37239;SDS011;23130;48.760;9.178;2023-02-15T04:31:55;54.33;;;26.90;;
37239;SDS011;23130;48.760;9.178;2023-02-15T04:34:22;61.97;;;26.58;;
37239;SDS011;23130;48.760;9.178;2023-02-15T04:36:48;56.53;;;25.67;;
37239;SDS011;23130;48.760;9.178;2023-02-15T04:39:15;48.17;;;22.92;;
37239;SDS011;23130;48.760;9.178;2023-02-15T04:41:42;48.95;;;25.30;;
37239;SDS011;23130;48.760;9.178;2023-02-15T04:44:09;46.15;;;24.33;;
37239;SDS011;23130;48.760;9.178;2023-02-15T04:46:34;49.28;;;23.88;;
37239;SDS011;23130;48.760;9.178;2023-02-15T04:49:00;50.92;;;25.35;;
37239;SDS011;23130;48.760;9.178;2023-02-15T04:51:25;43.88;;;22.05;;
37239;SDS011;23130;48.760;9.178;2023-02-15T04:53:51;45.58;;;23.98;;
37239;SDS011;23130;48.760;9.178;2023-02-15T04:56:20;54.25;;;25.35;;
37239;SDS011;23130;48.760;9.178;2023-02-15T04:58:46;42.63;;;23.58;;
37239;SDS011;23130;48.760;9.178;2023-02-15T05:01:12;42.22;;;21.88;;
37239;SDS011;23130;48.760;9.178;2023-02-15T05:03:38;50.33;;;25.05;;
37239;SDS011;23130;48.760;9.178;2023-02-15T05:06:03;50.15;;;22.75;;
37239;SDS011;23130;48.760;9.178;2023-02-15T05:08:29;49.75;;;22.70;;
37239;SDS011;23130;48.760;9.178;2023-02-15T05:10:55;43.70;;;23.05;;
37239;SDS011;23130;48.760;9.178;2023-02-15T05:13:21;50.95;;;23.60;;
37239;SDS011;23130;48.760;9.178;2023-02-15T05:15:50;48.78;;;22.75;;
37239;SDS011;23130;48.760;9.178;2023-02-15T05:18:17;45.90;;;23.73;;
37239;SDS011;23130;48.760;9.178;2023-02-15T05:20:43;45.67;;;23.00;;
37239;SDS011;23130;48.760;9.178;2023-02-15T05:23:09;45.83;;;22.55;;
37239;SDS011;23130;48.760;9.178;2023-02-15T05:25:35;43.65;;;22.00;;
37239;SDS011;23130;48.760;9.178;2023-02-15T05:28:19;42.30;;;21.13;;
37239;SDS011;23130;48.760;9.178;2023-02-15T05:30:45;56.42;;;25.92;;
37239;SDS011;23130;48.760;9.178;2023-02-15T05:33:12;48.97;;;22.45;;
37239;SDS011;23130;48.760;9.178;2023-02-15T05:35:38;49.38;;;22.35;;
37239;SDS011;23130;48.760;9.178;2023-02-15T05:38:03;47.97;;;22.20;;
37239;SDS011;23130;48.760;9.178;2023-02-15T05:40:29;50.53;;;23.75;;
37239;SDS011;23130;48.760;9.178;2023-02-15T05:42:55;65.15;;;25.55;;
37239;SDS011;23130;48.760;9.178;2023-02-15T05:45:21;49.53;;;25.08;;
37239;SDS011;23130;48.760;9.178;2023-02-15T05:47:47;58.63;;;26.50;;
37239;SDS011;23130;48.760;9.178;2023-02-15T05:50:12;55.60;;;25.17;;
37239;SDS011;23130;48.760;9.178;2023-02-15T05:52:38;57.83;;;25.55;;
37239;SDS011;23130;48.760;9.178;2023-02-15T05:55:04;49.92;;;23.88;;
37239;SDS011;23130;48.760;9.178;2023-02-15T05:57:30;49.60;;;24.35;;
37239;SDS011;23130;48.760;9.178;2023-02-15T05:59:56;50.08;;;24.00;;
37239;SDS011;23130;48.760;9.178;2023-02-15T06:02:22;50.15;;;23.13;;
37239;SDS011;23130;48.760;9.178;2023-02-15T06:04:47;44.60;;;23.65;;
37239;SDS011;23130;48.760;9.178;2023-02-15T06:07:13;43.42;;;22.33;;
37239;SDS011;23130;48.760;9.178;2023-02-15T06:09:38;54.15;;;25.17;;
37239;SDS011;23130;48.760;9.178;2023-02-15T06:12:04;57.40;;;26.48;;
37239;SDS011;23130;48.760;9.178;2023-02-15T06:14:30;55.40;;;24.55;;
37239;SDS011;23130;48.760;9.178;2023-02-15T06:16:56;55.40;;;24.05;;
37239;SDS011;23130;48.760;9.178;2023-02-15T06:19:21;46.65;;;23.80;;
37239;SDS011;23130;48.760;9.178;2023-02-15T06:21:47;43.03;;;21.75;;
37239;SDS011;23130;48.760;9.178;2023-02-15T06:24:13;55.90;;;24.63;;
37239;SDS011;23130;48.760;9.178;2023-02-15T06:26:39;54.35;;;25.67;;
37239;SDS011;23130;48.760;9.178;2023-02-15T06:29:05;52.22;;;25.02;;
37239;SDS011;23130;48.760;9.178;2023-02-15T06:31:30;50.42;;;24.55;;
37239;SDS011;23130;48.760;9.178;2023-02-15T06:33:56;57.88;;;27.27;;
37239;SDS011;23130;48.760;9.178;2023-02-15T06:36:26;54.63;;;25.30;;
37239;SDS011;23130;48.760;9.178;2023-02-15T06:38:53;54.15;;;25.30;;
37239;SDS011;23130;48.760;9.178;2023-02-15T06:41:18;54.28;;;23.63;;
37239;SDS011;23130;48.760;9.178;2023-02-15T06:43:44;54.80;;;24.25;;
37239;SDS011;23130;48.760;9.178;2023-02-15T06:46:09;49.53;;;22.90;;
37239;SDS011;23130;48.760;9.178;2023-02-15T06:48:35;58.42;;;25.20;;
37239;SDS011;23130;48.760;9.178;2023-02-15T06:51:00;52.38;;;23.83;;
37239;SDS011;23130;48.760;9.178;2023-02-15T06:53:26;52.13;;;25.63;;
37239;SDS011;23130;48.760;9.178;2023-02-15T06:55:51;53.30;;;24.38;;
37239;SDS011;23130;48.760;9.178;2023-02-15T06:58:17;52.67;;;23.20;;
37239;SDS011;23130;48.760;9.178;2023-02-15T07:00:42;56.47;;;26.02;;
37239;SDS011;23130;48.760;9.178;2023-02-15T07:03:08;50.63;;;24.08;;
37239;SDS011;23130;48.760;9.178;2023-02-15T07:05:34;54.17;;;25.02;;
37239;SDS011;23130;48.760;9.178;2023-02-15T07:08:00;54.47;;;24.95;;
37239;SDS011;23130;48.760;9.178;2023-02-15T07:10:26;51.28;;;25.33;;
37239;SDS011;23130;48.760;9.178;2023-02-15T07:12:52;53.03;;;25.42;;
37239;SDS011;23130;48.760;9.178;2023-02-15T07:15:18;55.72;;;25.70;;
37239;SDS011;23130;48.760;9.178;2023-02-15T07:17:47;51.80;;;24.95;;
37239;SDS011;23130;48.760;9.178;2023-02-15T07:20:15;54.00;;;23.55;;
37239;SDS011;23130;48.760;9.178;2023-02-15T07:22:43;59.40;;;27.02;;
37239;SDS011;23130;48.760;9.178;2023-02-15T07:25:09;53.47;;;26.33;;
37239;SDS011;23130;48.760;9.178;2023-02-15T07:27:36;54.78;;;26.38;;
37239;SDS011;23130;48.760;9.178;2023-02-15T07:30:02;55.22;;;25.10;;
37239;SDS011;23130;48.760;9.178;2023-02-15T07:32:31;55.63;;;25.67;;
37239;SDS011;23130;48.760;9.178;2023-02-15T07:34:57;50.15;;;24.48;;
37239;SDS011;23130;48.760;9.178;2023-02-15T07:37:23;51.95;;;24.10;;
37239;SDS011;23130;48.760;9.178;2023-02-15T07:39:49;60.70;;;27.77;;
37239;SDS011;23130;48.760;9.178;2023-02-15T07:42:15;60.08;;;27.40;;
37239;SDS011;23130;48.760;9.178;2023-02-15T07:44:41;53.85;;;27.48;;
37239;SDS011;23130;48.760;9.178;2023-02-15T07:47:06;58.22;;;26.33;;
37239;SDS011;23130;48.760;9.178;2023-02-15T07:49:32;58.15;;;26.63;;
37239;SDS011;23130;48.760;9.178;2023-02-15T07:51:57;54.13;;;26.25;;
37239;SDS011;23130;48.760;9.178;2023-02-15T07:54:25;56.80;;;28.27;;
37239;SDS011;23130;48.760;9.178;2023-02-15T07:56:51;57.33;;;25.13;;
37239;SDS011;23130;48.760;9.178;2023-02-15T07:59:16;60.40;;;27.70;;
37239;SDS011;23130;48.760;9.178;2023-02-15T08:01:42;56.13;;;25.92;;
37239;SDS011;23130;48.760;9.178;2023-02-15T08:04:08;58.28;;;27.80;;
37239;SDS011;23130;48.760;9.178;2023-02-15T08:06:35;57.95;;;27.58;;
37239;SDS011;23130;48.760;9.178;2023-02-15T08:09:05;54.13;;;28.13;;
37239;SDS011;23130;48.760;9.178;2023-02-15T08:11:33;58.80;;;27.55;;
37239;SDS011;23130;48.760;9.178;2023-02-15T08:16:37;57.72;;;27.60;;
37239;SDS011;23130;48.760;9.178;2023-02-15T08:19:06;63.58;;;27.90;;
37239;SDS011;23130;48.760;9.178;2023-02-15T08:21:34;57.65;;;28.23;;
37239;SDS011;23130;48.760;9.178;2023-02-15T08:24:01;62.63;;;30.10;;
37239;SDS011;23130;48.760;9.178;2023-02-15T08:26:28;64.47;;;30.05;;
37239;SDS011;23130;48.760;9.178;2023-02-15T08:28:55;56.95;;;28.25;;
37239;SDS011;23130;48.760;9.178;2023-02-15T08:31:22;55.63;;;28.25;;
37239;SDS011;23130;48.760;9.178;2023-02-15T08:33:49;61.22;;;29.85;;
37239;SDS011;23130;48.760;9.178;2023-02-15T08:36:16;60.60;;;28.60;;
37239;SDS011;23130;48.760;9.178;2023-02-15T08:38:43;61.30;;;30.42;;
37239;SDS011;23130;48.760;9.178;2023-02-15T08:41:10;52.67;;;27.40;;
37239;SDS011;23130;48.760;9.178;2023-02-15T08:43:37;58.65;;;28.10;;
37239;SDS011;23130;48.760;9.178;2023-02-15T08:46:03;62.85;;;30.13;;
37239;SDS011;23130;48.760;9.178;2023-02-15T08:48:29;55.15;;;29.95;;
37239;SDS011;23130;48.760;9.178;2023-02-15T08:51:04;72.28;;;32.67;;
37239;SDS011;23130;48.760;9.178;2023-02-15T08:53:31;63.72;;;31.52;;
37239;SDS011;23130;48.760;9.178;2023-02-15T08:55:57;56.78;;;29.92;;
37239;SDS011;23130;48.760;9.178;2023-02-15T08:58:23;60.88;;;31.50;;
37239;SDS011;23130;48.760;9.178;2023-02-15T09:00:49;65.00;;;33.30;;
37239;SDS011;23130;48.760;9.178;2023-02-15T09:03:15;65.28;;;31.77;;
37239;SDS011;23130;48.760;9.178;2023-02-15T09:05:40;71.68;;;32.70;;
37239;SDS011;23130;48.760;9.178;2023-02-15T09:08:06;69.45;;;31.42;;
37239;SDS011;23130;48.760;9.178;2023-02-15T09:10:31;61.15;;;32.63;;
37239;SDS011;23130;48.760;9.178;2023-02-15T09:12:57;73.10;;;33.97;;
37239;SDS011;23130;48.760;9.178;2023-02-15T09:15:22;69.35;;;32.90;;
37239;SDS011;23130;48.760;9.178;2023-02-15T09:17:48;68.13;;;33.00;;
37239;SDS011;23130;48.760;9.178;2023-02-15T09:20:14;65.53;;;33.28;;
37239;SDS011;23130;48.760;9.178;2023-02-15T09:22:39;64.68;;;32.50;;
37239;SDS011;23130;48.760;9.178;2023-02-15T09:25:05;70.20;;;33.13;;
37239;SDS011;23130;48.760;9.178;2023-02-15T09:27:30;66.95;;;32.45;;
37239;SDS011;23130;48.760;9.178;2023-02-15T09:29:56;67.18;;;34.90;;
37239;SDS011;23130;48.760;9.178;2023-02-15T09:32:21;75.15;;;35.25;;
37239;SDS011;23130;48.760;9.178;2023-02-15T09:34:47;80.45;;;35.20;;
37239;SDS011;23130;48.760;9.178;2023-02-15T09:37:13;67.22;;;34.67;;
37239;SDS011;23130;48.760;9.178;2023-02-15T09:39:39;72.38;;;35.60;;
37239;SDS011;23130;48.760;9.178;2023-02-15T09:42:15;76.18;;;35.15;;
37239;SDS011;23130;48.760;9.178;2023-02-15T09:50:35;65.70;;;34.28;;
37239;SDS011;23130;48.760;9.178;2023-02-15T10:09:23;62.60;;;33.17;;
37239;SDS011;23130;48.760;9.178;2023-02-15T10:22:49;61.63;;;32.65;;
37239;SDS011;23130;48.760;9.178;2023-02-15T10:28:18;70.82;;;36.60;;
37239;SDS011;23130;48.760;9.178;2023-02-15T10:30:50;71.40;;;34.05;;
37239;SDS011;23130;48.760;9.178;2023-02-15T10:33:41;67.30;;;35.17;;
37239;SDS011;23130;48.760;9.178;2023-02-15T10:36:16;55.45;;;32.05;;
37239;SDS011;23130;48.760;9.178;2023-02-15T10:47:25;58.45;;;33.30;;
37239;SDS011;23130;48.760;9.178;2023-02-15T10:55:47;57.58;;;31.13;;
37239;SDS011;23130;48.760;9.178;2023-02-15T10:58:23;54.42;;;30.20;;
37239;SDS011;23130;48.760;9.178;2023-02-15T11:01:36;59.20;;;30.50;;
37239;SDS011;23130;48.760;9.178;2023-02-15T11:06:19;56.13;;;30.23;;
37239;SDS011;23130;48.760;9.178;2023-02-15T11:08:59;57.75;;;30.70;;
37239;SDS011;23130;48.760;9.178;2023-02-15T11:11:31;51.97;;;29.02;;
37239;SDS011;23130;48.760;9.178;2023-02-15T11:14:02;55.25;;;30.30;;
37239;SDS011;23130;48.760;9.178;2023-02-15T11:16:31;51.38;;;30.33;;
37239;SDS011;23130;48.760;9.178;2023-02-15T11:19:01;50.13;;;29.30;;
37239;SDS011;23130;48.760;9.178;2023-02-15T11:21:42;55.22;;;29.55;;
37239;SDS011;23130;48.760;9.178;2023-02-15T11:24:11;54.28;;;27.20;;
37239;SDS011;23130;48.760;9.178;2023-02-15T11:26:41;46.80;;;26.88;;
37239;SDS011;23130;48.760;9.178;2023-02-15T11:29:27;43.17;;;27.13;;
37239;SDS011;23130;48.760;9.178;2023-02-15T11:34:54;44.70;;;25.77;;
37239;SDS011;23130;48.760;9.178;2023-02-15T11:37:28;44.65;;;26.33;;
37239;SDS011;23130;48.760;9.178;2023-02-15T11:40:21;53.92;;;26.25;;
37239;SDS011;23130;48.760;9.178;2023-02-15T11:42:51;40.78;;;25.33;;
37239;SDS011;23130;48.760;9.178;2023-02-15T11:45:33;50.75;;;27.13;;
37239;SDS011;23130;48.760;9.178;2023-02-15T11:48:00;44.58;;;25.67;;
37239;SDS011;23130;48.760;9.178;2023-02-15T11:50:28;39.05;;;22.77;;
37239;SDS011;23130;48.760;9.178;2023-02-15T11:52:57;43.50;;;24.25;;
37239;SDS011;23130;48.760;9.178;2023-02-15T11:55:25;40.72;;;22.42;;
37239;SDS011;23130;48.760;9.178;2023-02-15T11:57:55;41.25;;;22.65;;
37239;SDS011;23130;48.760;9.178;2023-02-15T12:00:43;34.03;;;23.38;;
37239;SDS011;23130;48.760;9.178;2023-02-15T12:03:13;42.70;;;23.30;;
37239;SDS011;23130;48.760;9.178;2023-02-15T12:05:50;36.83;;;21.55;;
37239;SDS011;23130;48.760;9.178;2023-02-15T12:08:22;37.75;;;21.05;;
37239;SDS011;23130;48.760;9.178;2023-02-15T12:13:20;32.28;;;20.90;;
37239;SDS011;23130;48.760;9.178;2023-02-15T12:15:46;35.95;;;20.52;;
37239;SDS011;23130;48.760;9.178;2023-02-15T12:18:18;36.30;;;20.67;;
37239;SDS011;23130;48.760;9.178;2023-02-15T12:21:08;36.55;;;21.48;;
37239;SDS011;23130;48.760;9.178;2023-02-15T12:23:43;29.27;;;19.92;;
37239;SDS011;23130;48.760;9.178;2023-02-15T12:26:13;36.50;;;22.45;;
37239;SDS011;23130;48.760;9.178;2023-02-15T12:28:44;36.03;;;21.27;;
37239;SDS011;23130;48.760;9.178;2023-02-15T12:31:38;36.00;;;21.27;;
37239;SDS011;23130;48.760;9.178;2023-02-15T12:34:12;31.38;;;20.25;;
37239;SDS011;23130;48.760;9.178;2023-02-15T12:36:43;28.42;;;18.58;;
37239;SDS011;23130;48.760;9.178;2023-02-15T12:39:16;30.35;;;18.52;;
37239;SDS011;23130;48.760;9.178;2023-02-15T12:41:46;32.25;;;18.88;;
37239;SDS011;23130;48.760;9.178;2023-02-15T12:44:24;33.35;;;19.92;;
37239;SDS011;23130;48.760;9.178;2023-02-15T12:47:05;30.35;;;19.23;;
37239;SDS011;23130;48.760;9.178;2023-02-15T12:49:42;32.47;;;19.58;;
37239;SDS011;23130;48.760;9.178;2023-02-15T12:52:29;33.22;;;20.27;;
37239;SDS011;23130;48.760;9.178;2023-02-15T12:54:54;31.50;;;18.48;;
37239;SDS011;23130;48.760;9.178;2023-02-15T12:57:34;31.55;;;18.27;;
37239;SDS011;23130;48.760;9.178;2023-02-15T13:00:01;34.60;;;20.70;;
37239;SDS011;23130;48.760;9.178;2023-02-15T13:02:41;33.83;;;20.40;;
37239;SDS011;23130;48.760;9.178;2023-02-15T13:05:19;30.17;;;18.80;;
37239;SDS011;23130;48.760;9.178;2023-02-15T13:07:52;32.33;;;18.70;;
37239;SDS011;23130;48.760;9.178;2023-02-15T13:13:10;30.58;;;20.67;;
37239;SDS011;23130;48.760;9.178;2023-02-15T13:15:43;33.38;;;20.00;;
37239;SDS011;23130;48.760;9.178;2023-02-15T13:18:33;30.10;;;19.23;;
37239;SDS011;23130;48.760;9.178;2023-02-15T13:21:23;35.10;;;20.80;;
37239;SDS011;23130;48.760;9.178;2023-02-15T13:23:57;29.63;;;18.45;;
37239;SDS011;23130;48.760;9.178;2023-02-15T13:26:30;31.08;;;18.85;;
37239;SDS011;23130;48.760;9.178;2023-02-15T13:28:58;32.17;;;20.48;;
37239;SDS011;23130;48.760;9.178;2023-02-15T13:34:10;34.70;;;18.85;;
37239;SDS011;23130;48.760;9.178;2023-02-15T13:42:05;34.70;;;19.88;;
37239;SDS011;23130;48.760;9.178;2023-02-15T13:47:18;36.03;;;19.80;;
37239;SDS011;23130;48.760;9.178;2023-02-15T13:52:38;28.58;;;19.33;;
37239;SDS011;23130;48.760;9.178;2023-02-15T13:58:03;34.38;;;19.55;;
37239;SDS011;23130;48.760;9.178;2023-02-15T14:00:44;33.95;;;20.63;;
37239;SDS011;23130;48.760;9.178;2023-02-15T14:03:42;30.45;;;19.33;;
37239;SDS011;23130;48.760;9.178;2023-02-15T14:06:32;34.03;;;19.77;;
37239;SDS011;23130;48.760;9.178;2023-02-15T14:14:32;32.80;;;19.17;;
37239;SDS011;23130;48.760;9.178;2023-02-15T14:17:22;29.88;;;18.70;;
37239;SDS011;23130;48.760;9.178;2023-02-15T14:20:14;30.25;;;20.30;;
37239;SDS011;23130;48.760;9.178;2023-02-15T14:23:02;26.58;;;18.42;;
37239;SDS011;23130;48.760;9.178;2023-02-15T14:25:41;31.77;;;19.48;;
37239;SDS011;23130;48.760;9.178;2023-02-15T14:28:29;30.15;;;19.02;;
37239;SDS011;23130;48.760;9.178;2023-02-15T14:31:04;33.38;;;20.02;;
37239;SDS011;23130;48.760;9.178;2023-02-15T14:33:34;28.00;;;19.55;;
37239;SDS011;23130;48.760;9.178;2023-02-15T14:36:05;32.05;;;19.15;;
37239;SDS011;23130;48.760;9.178;2023-02-15T14:41:11;26.80;;;17.33;;
37239;SDS011;23130;48.760;9.178;2023-02-15T14:46:54;29.83;;;18.70;;
37239;SDS011;23130;48.760;9.178;2023-02-15T14:49:43;27.13;;;18.70;;
37239;SDS011;23130;48.760;9.178;2023-02-15T14:52:09;31.17;;;18.52;;
37239;SDS011;23130;48.760;9.178;2023-02-15T15:02:17;28.30;;;16.20;;
37239;SDS011;23130;48.760;9.178;2023-02-15T15:04:58;22.88;;;14.75;;
37239;SDS011;23130;48.760;9.178;2023-02-15T15:07:38;29.35;;;17.30;;
37239;SDS011;23130;48.760;9.178;2023-02-15T15:12:42;24.13;;;15.82;;
37239;SDS011;23130;48.760;9.178;2023-02-15T15:15:14;22.85;;;14.75;;
37239;SDS011;23130;48.760;9.178;2023-02-15T15:20:36;29.13;;;16.17;;
37239;SDS011;23130;48.760;9.178;2023-02-15T15:28:57;27.85;;;17.35;;
37239;SDS011;23130;48.760;9.178;2023-02-15T15:31:04;24.80;;;17.40;;
37239;SDS011;23130;48.760;9.178;2023-02-15T15:50:31;25.38;;;15.65;;
37239;SDS011;23130;48.760;9.178;2023-02-15T15:52:58;24.52;;;16.30;;
37239;SDS011;23130;48.760;9.178;2023-02-15T15:55:26;27.02;;;15.93;;
37239;SDS011;23130;48.760;9.178;2023-02-15T15:57:58;26.95;;;16.23;;
37239;SDS011;23130;48.760;9.178;2023-02-15T16:00:36;23.02;;;15.40;;
37239;SDS011;23130;48.760;9.178;2023-02-15T16:03:27;23.38;;;15.98;;
37239;SDS011;23130;48.760;9.178;2023-02-15T16:05:54;23.80;;;14.75;;
37239;SDS011;23130;48.760;9.178;2023-02-15T16:08:28;24.95;;;16.02;;
37239;SDS011;23130;48.760;9.178;2023-02-15T16:10:54;33.90;;;18.15;;
37239;SDS011;23130;48.760;9.178;2023-02-15T16:13:20;28.92;;;16.95;;
37239;SDS011;23130;48.760;9.178;2023-02-15T16:15:46;26.95;;;17.25;;
37239;SDS011;23130;48.760;9.178;2023-02-15T16:18:18;28.45;;;17.55;;
37239;SDS011;23130;48.760;9.178;2023-02-15T16:20:57;31.65;;;18.25;;
37239;SDS011;23130;48.760;9.178;2023-02-15T16:26:05;28.98;;;18.13;;
37239;SDS011;23130;48.760;9.178;2023-02-15T16:28:37;28.52;;;17.13;;
37239;SDS011;23130;48.760;9.178;2023-02-15T16:31:06;27.70;;;17.25;;
37239;SDS011;23130;48.760;9.178;2023-02-15T16:33:37;33.80;;;18.93;;
37239;SDS011;23130;48.760;9.178;2023-02-15T16:36:04;29.80;;;16.98;;
37239;SDS011;23130;48.760;9.178;2023-02-15T16:41:07;28.17;;;16.85;;
37239;SDS011;23130;48.760;9.178;2023-02-15T16:43:36;29.67;;;17.48;;
37239;SDS011;23130;48.760;9.178;2023-02-15T16:46:06;28.35;;;17.30;;
37239;SDS011;23130;48.760;9.178;2023-02-15T16:48:39;31.48;;;17.85;;
37239;SDS011;23130;48.760;9.178;2023-02-15T16:51:07;30.33;;;17.52;;
37239;SDS011;23130;48.760;9.178;2023-02-15T16:53:33;27.45;;;18.20;;
37239;SDS011;23130;48.760;9.178;2023-02-15T16:56:01;29.42;;;17.92;;
37239;SDS011;23130;48.760;9.178;2023-02-15T16:58:30;30.58;;;17.77;;
37239;SDS011;23130;48.760;9.178;2023-02-15T17:01:02;29.73;;;18.00;;
37239;SDS011;23130;48.760;9.178;2023-02-15T17:03:30;28.88;;;19.25;;
37239;SDS011;23130;48.760;9.178;2023-02-15T17:05:57;31.00;;;18.35;;
37239;SDS011;23130;48.760;9.178;2023-02-15T17:08:31;27.40;;;17.20;;
37239;SDS011;23130;48.760;9.178;2023-02-15T17:13:24;29.17;;;17.65;;
37239;SDS011;23130;48.760;9.178;2023-02-15T17:18:29;25.75;;;15.55;;
37239;SDS011;23130;48.760;9.178;2023-02-15T17:20:59;26.20;;;15.52;;
37239;SDS011;23130;48.760;9.178;2023-02-15T17:23:42;22.98;;;14.60;;
37239;SDS011;23130;48.760;9.178;2023-02-15T17:26:14;24.90;;;16.08;;
37239;SDS011;23130;48.760;9.178;2023-02-15T17:28:49;33.35;;;17.98;;
37239;SDS011;23130;48.760;9.178;2023-02-15T17:31:24;28.85;;;16.88;;
37239;SDS011;23130;48.760;9.178;2023-02-15T17:33:55;24.43;;;15.10;;
37239;SDS011;23130;48.760;9.178;2023-02-15T17:36:24;25.65;;;14.85;;
37239;SDS011;23130;48.760;9.178;2023-02-15T17:41:29;27.25;;;15.63;;
37239;SDS011;23130;48.760;9.178;2023-02-15T17:43:56;30.10;;;15.32;;